createdAt,value
2023-04-21T00:01:18.426Z,12.93
2023-04-21T00:03:22.371Z,14.40
2023-04-21T00:05:24.787Z,12.68
2023-04-21T00:07:26.832Z,13.65
2023-04-21T00:09:28.483Z,12.38
2023-04-21T00:11:30.207Z,12.02
2023-04-21T00:13:31.861Z,12.77
2023-04-21T00:15:33.556Z,12.98
2023-04-21T00:17:35.260Z,14.65
2023-04-21T00:19:39.889Z,13.10
2023-04-21T00:21:41.660Z,14.65
2023-04-21T00:23:43.432Z,14.27
2023-04-21T00:25:45.181Z,13.20
2023-04-21T00:27:46.911Z,12.70
2023-04-21T00:29:48.647Z,13.02
2023-04-21T00:31:50.457Z,13.23
2023-04-21T00:33:52.174Z,12.45
2023-04-21T00:35:54.610Z,15.23
2023-04-21T00:37:56.317Z,13.45
2023-04-21T00:39:58.775Z,13.60
2023-04-21T00:42:01.459Z,12.85
2023-04-21T00:44:05.148Z,14.63
2023-04-21T00:46:06.860Z,12.73
2023-04-21T00:48:08.560Z,12.00
2023-04-21T00:50:11.428Z,12.10
2023-04-21T00:52:14.332Z,12.52
2023-04-21T00:54:16.739Z,11.63
2023-04-21T00:56:19.010Z,13.02
2023-04-21T00:58:20.717Z,13.23
2023-04-21T01:00:22.536Z,12.82
2023-04-21T01:02:24.787Z,12.38
2023-04-21T01:04:27.066Z,11.75
2023-04-21T01:06:29.802Z,13.38
2023-04-21T01:08:31.544Z,11.52
2023-04-21T01:10:33.639Z,12.02
2023-04-21T01:12:45.958Z,12.68
2023-04-21T01:14:47.678Z,12.32
2023-04-21T01:16:52.940Z,12.43
2023-04-21T01:18:55.305Z,11.65
2023-04-21T01:20:58.962Z,11.18
2023-04-21T01:23:00.606Z,11.43
2023-04-21T01:25:02.336Z,11.95
2023-04-21T01:27:04.327Z,12.15
2023-04-21T01:29:06.122Z,11.35
2023-04-21T01:31:07.879Z,11.85
2023-04-21T01:33:09.611Z,10.85
2023-04-21T01:35:11.398Z,12.15
2023-04-21T01:37:18.550Z,10.60
2023-04-21T01:39:20.654Z,10.88
2023-04-21T01:41:22.517Z,12.30
2023-04-21T01:43:25.770Z,11.35
2023-04-21T01:45:27.660Z,11.55
2023-04-21T01:47:29.428Z,11.93
2023-04-21T01:49:31.220Z,9.98
2023-04-21T01:51:33.060Z,12.43
2023-04-21T01:53:34.816Z,10.95
2023-04-21T01:55:36.529Z,11.15
2023-04-21T01:57:38.370Z,11.60
2023-04-21T01:59:40.354Z,10.18
2023-04-21T02:01:42.154Z,11.32
2023-04-21T02:03:44.158Z,11.70
2023-04-21T02:05:46.074Z,11.20
2023-04-21T02:07:47.742Z,11.07
2023-04-21T02:09:49.446Z,11.32
2023-04-21T02:11:51.174Z,11.10
2023-04-21T02:13:54.268Z,12.93
2023-04-21T02:16:09.699Z,12.35
2023-04-21T02:18:15.049Z,11.63
2023-04-21T02:20:16.829Z,11.07
2023-04-21T02:22:18.579Z,11.68
2023-04-21T02:24:20.293Z,11.38
2023-04-21T02:26:22.089Z,10.02
2023-04-21T02:28:23.812Z,10.30
2023-04-21T02:30:25.496Z,12.02
2023-04-21T02:32:30.274Z,11.57
2023-04-21T02:34:31.992Z,10.43
2023-04-21T02:36:33.976Z,10.48
2023-04-21T02:38:35.752Z,9.90
2023-04-21T02:40:37.506Z,11.57
2023-04-21T02:42:39.178Z,12.07
2023-04-21T02:44:40.919Z,11.32
2023-04-21T02:46:43.271Z,10.48
2023-04-21T02:48:45.052Z,11.63
2023-04-21T02:50:47.053Z,10.25
2023-04-21T02:52:48.753Z,11.65
2023-04-21T02:54:50.634Z,10.55
2023-04-21T02:56:52.449Z,11.75
2023-04-21T02:59:16.745Z,10.23
2023-04-21T03:01:18.853Z,10.25
2023-04-21T03:03:20.716Z,10.48
2023-04-21T03:05:22.612Z,10.98
2023-04-21T03:07:24.377Z,9.90
2023-04-21T03:09:26.128Z,10.68
2023-04-21T03:11:31.094Z,10.93
2023-04-21T03:13:32.754Z,10.52
2023-04-21T03:15:34.644Z,11.52
2023-04-21T03:17:36.441Z,10.60
2023-04-21T03:19:38.139Z,10.88
2023-04-21T03:21:39.889Z,11.52
2023-04-21T03:23:41.550Z,11.75
2023-04-21T03:25:43.468Z,10.60
2023-04-21T03:27:45.138Z,10.88
2023-04-21T03:29:46.890Z,10.77
2023-04-21T03:31:48.727Z,11.90
2023-04-21T03:33:50.383Z,10.57
2023-04-21T03:35:52.170Z,11.50
2023-04-21T03:37:53.959Z,11.13
2023-04-21T03:39:55.554Z,12.13
2023-04-21T03:41:57.942Z,11.77
2023-04-21T03:43:59.576Z,11.93
2023-04-21T03:46:01.499Z,12.40
2023-04-21T03:48:03.947Z,11.45
2023-04-21T03:50:06.980Z,12.85
2023-04-21T03:52:08.800Z,11.18
2023-04-21T03:54:10.479Z,11.73
2023-04-21T03:56:12.420Z,11.93
2023-04-21T03:58:14.459Z,11.98
2023-04-21T04:00:16.546Z,12.02
2023-04-21T04:02:18.455Z,13.13
2023-04-21T04:04:20.664Z,11.90
2023-04-21T04:06:22.583Z,11.90
2023-04-21T04:08:24.416Z,12.80
2023-04-21T04:10:26.079Z,11.85
2023-04-21T04:12:27.770Z,12.80
2023-04-21T04:14:30.224Z,11.73
2023-04-21T04:16:34.515Z,13.38
2023-04-21T04:18:36.274Z,10.95
2023-04-21T04:20:38.022Z,11.43
2023-04-21T04:22:39.817Z,10.65
2023-04-21T04:24:41.571Z,11.90
2023-04-21T04:26:46.507Z,12.05
2023-04-21T04:28:48.379Z,12.77
2023-04-21T04:30:50.665Z,12.35
2023-04-21T04:32:53.067Z,12.38
2023-04-21T04:34:59.073Z,10.82
2023-04-21T04:37:02.465Z,12.52
2023-04-21T04:39:04.441Z,11.05
2023-04-21T04:41:06.463Z,12.82
2023-04-21T04:43:08.953Z,12.65
2023-04-21T04:45:11.476Z,12.10
2023-04-21T04:47:13.521Z,11.43
2023-04-21T04:49:15.605Z,13.18
2023-04-21T04:51:17.637Z,13.77
2023-04-21T04:53:19.298Z,12.20
2023-04-21T04:55:21.303Z,13.63
2023-04-21T04:57:23.123Z,13.38
2023-04-21T04:59:24.832Z,13.80
2023-04-21T05:01:30.492Z,13.65
2023-04-21T05:03:32.453Z,13.48
2023-04-21T05:05:34.327Z,13.15
2023-04-21T05:07:36.155Z,12.15
2023-04-21T05:09:37.883Z,12.73
2023-04-21T05:11:39.969Z,12.90
2023-04-21T05:13:41.991Z,11.80
2023-04-21T05:15:44.128Z,13.07
2023-04-21T05:17:46.064Z,13.10
2023-04-21T05:19:48.081Z,13.35
2023-04-21T05:21:51.030Z,13.30
2023-04-21T05:23:52.894Z,12.45
2023-04-21T05:25:54.846Z,13.48
2023-04-21T05:27:58.063Z,13.77
2023-04-21T05:30:00.594Z,13.85
2023-04-21T05:32:02.681Z,14.55
2023-04-21T05:34:04.486Z,13.55
2023-04-21T05:36:10.296Z,13.35
2023-04-21T05:38:12.181Z,15.40
2023-04-21T05:40:14.025Z,15.90
2023-04-21T05:42:15.907Z,15.77
2023-04-21T05:44:18.365Z,15.77
2023-04-21T05:46:20.729Z,14.43
2023-04-21T05:48:23.555Z,16.02
2023-04-21T05:50:28.846Z,15.00
2023-04-21T05:52:32.858Z,15.52
2023-04-21T05:54:34.613Z,18.23
2023-04-21T05:56:37.011Z,16.67
2023-04-21T05:58:39.288Z,17.33
2023-04-21T06:00:41.187Z,18.00
2023-04-21T06:02:42.951Z,19.70
2023-04-21T06:04:45.136Z,19.42
2023-04-21T06:06:47.154Z,17.10
2023-04-21T06:08:48.880Z,18.15
2023-04-21T06:10:50.830Z,20.23
2023-04-21T06:12:52.657Z,18.23
2023-04-21T06:14:57.888Z,19.67
2023-04-21T06:16:59.998Z,18.70
2023-04-21T06:19:01.986Z,21.92
2023-04-21T06:21:04.131Z,18.35
2023-04-21T06:23:05.965Z,20.42
2023-04-21T06:25:08.252Z,19.08
2023-04-21T06:27:12.003Z,18.98
2023-04-21T06:29:13.684Z,19.58
2023-04-21T06:31:15.907Z,19.45
2023-04-21T06:33:17.848Z,18.50
2023-04-21T06:35:20.616Z,19.38
2023-04-21T06:37:22.535Z,19.60
2023-04-21T06:39:24.232Z,19.70
2023-04-21T06:41:26.450Z,19.80
2023-04-21T06:43:28.435Z,20.38
2023-04-21T06:45:30.206Z,18.33
2023-04-21T06:47:32.162Z,17.70
2023-04-21T06:49:34.423Z,15.70
2023-04-21T06:51:37.724Z,15.38
2023-04-21T06:53:39.470Z,16.88
2023-04-21T06:55:42.349Z,17.13
2023-04-21T06:57:44.323Z,17.83
2023-04-21T06:59:48.966Z,16.98
2023-04-21T07:01:52.565Z,16.17
2023-04-21T07:03:55.017Z,16.95
2023-04-21T07:05:57.057Z,15.70
2023-04-21T07:08:01.631Z,16.90
2023-04-21T07:10:03.459Z,15.00
2023-04-21T07:12:05.263Z,17.40
2023-04-21T07:14:07.054Z,15.50
2023-04-21T07:16:08.915Z,15.02
2023-04-21T07:18:10.642Z,17.45
2023-04-21T07:20:12.751Z,14.60
2023-04-21T07:22:14.436Z,14.07
2023-04-21T07:24:16.222Z,15.48
2023-04-21T07:26:18.401Z,14.70
2023-04-21T07:28:20.094Z,14.60
2023-04-21T07:30:21.839Z,14.60
2023-04-21T07:32:23.597Z,14.65
2023-04-21T07:34:25.430Z,14.20
2023-04-21T07:36:30.533Z,13.68
2023-04-21T07:38:32.932Z,15.25
2023-04-21T07:40:34.812Z,14.38
2023-04-21T07:42:36.632Z,13.70
2023-04-21T07:44:38.274Z,13.73
2023-04-21T07:46:40.265Z,12.88
2023-04-21T07:48:47.355Z,12.18
2023-04-21T07:50:50.557Z,11.82
2023-04-21T07:52:52.198Z,12.63
2023-04-21T07:54:53.925Z,10.20
2023-04-21T07:56:56.220Z,10.88
2023-04-21T07:58:58.023Z,8.30
2023-04-21T08:00:59.764Z,10.32
2023-04-21T08:03:03.394Z,9.23
2023-04-21T08:05:05.845Z,9.52
2023-04-21T08:07:10.154Z,8.90
2023-04-21T08:09:12.191Z,9.45
2023-04-21T08:11:14.300Z,8.13
2023-04-21T08:13:16.220Z,8.82
2023-04-21T08:15:18.135Z,8.63
2023-04-21T08:17:29.447Z,7.70
2023-04-21T08:19:34.421Z,8.02
2023-04-21T08:21:36.972Z,7.93
2023-04-21T08:23:38.823Z,7.18
2023-04-21T08:25:40.574Z,7.35
2023-04-21T08:27:43.937Z,7.10
2023-04-21T08:29:45.682Z,6.43
2023-04-21T08:31:47.405Z,6.00
2023-04-21T08:34:00.500Z,6.30
2023-04-21T08:36:12.302Z,5.32
2023-04-21T08:38:20.084Z,5.90
2023-04-21T08:40:22.134Z,5.22
2023-04-21T08:42:23.896Z,5.20
2023-04-21T08:44:26.351Z,6.07
2023-04-21T08:46:28.571Z,4.93
2023-04-21T08:48:31.495Z,3.63
2023-04-21T08:50:34.384Z,3.10
2023-04-21T08:52:36.074Z,3.45
2023-04-21T08:54:38.909Z,3.35
2023-04-21T08:56:41.098Z,3.22
2023-04-21T08:58:43.086Z,3.20
2023-04-21T09:00:44.880Z,3.33
2023-04-21T09:03:19.338Z,2.90
2023-04-21T09:05:36.385Z,3.92
2023-04-21T09:07:41.649Z,3.00
2023-04-21T09:09:56.829Z,3.40
2023-04-21T09:11:58.832Z,3.88
2023-04-21T09:14:00.788Z,4.18
2023-04-21T09:16:16.554Z,2.72
2023-04-21T09:18:23.281Z,2.30
2023-04-21T09:20:25.811Z,2.00
2023-04-21T09:22:29.747Z,2.47
2023-04-21T09:24:31.453Z,3.13
2023-04-21T09:26:35.118Z,2.90
2023-04-21T09:28:41.430Z,3.00
2023-04-21T09:30:43.445Z,2.58
2023-04-21T09:32:45.375Z,2.38
2023-04-21T09:34:50.427Z,2.40
2023-04-21T09:37:01.620Z,2.10
2023-04-21T09:41:10.370Z,1.90
2023-04-21T09:43:12.035Z,2.03
2023-04-21T09:45:36.677Z,2.08
2023-04-21T09:47:41.878Z,1.90
2023-04-21T09:49:45.158Z,2.20
2023-04-21T09:53:54.125Z,1.80
2023-04-21T09:55:57.301Z,1.50
2023-04-21T09:58:00.756Z,1.38
2023-04-21T10:00:08.906Z,1.40
2023-04-21T10:02:11.609Z,2.38
2023-04-21T10:04:13.960Z,1.27
2023-04-21T10:06:16.076Z,1.50
2023-04-21T10:08:17.986Z,1.30
2023-04-21T10:10:28.648Z,1.30
2023-04-21T10:12:30.475Z,1.30
2023-04-21T10:14:35.405Z,1.42
2023-04-21T10:16:38.573Z,1.45
2023-04-21T10:18:45.883Z,1.20
2023-04-21T10:20:59.632Z,1.10
2023-04-21T10:23:01.376Z,0.82
2023-04-21T10:25:05.114Z,0.80
2023-04-21T10:27:31.398Z,0.90
2023-04-21T10:29:47.785Z,0.80
2023-04-21T10:31:56.997Z,0.90
2023-04-21T10:34:07.913Z,0.70
2023-04-21T10:36:12.524Z,0.80
2023-04-21T10:38:43.438Z,0.80
2023-04-21T10:40:45.446Z,0.60
2023-04-21T10:42:47.352Z,0.80
2023-04-21T10:44:58.631Z,0.70
2023-04-21T10:47:07.757Z,0.73
2023-04-21T10:49:21.339Z,0.93
2023-04-21T10:51:23.055Z,0.50
2023-04-21T10:53:25.878Z,0.90
2023-04-21T10:55:29.064Z,1.00
2023-04-21T10:57:33.265Z,0.70
2023-04-21T10:59:36.194Z,0.60
2023-04-21T11:01:40.847Z,0.43
2023-04-21T11:03:43.820Z,0.60
2023-04-21T11:05:46.285Z,0.70
2023-04-21T11:07:48.092Z,0.63
2023-04-21T11:10:00.679Z,1.05
2023-04-21T11:12:07.490Z,0.80
2023-04-21T11:14:09.195Z,0.40
2023-04-21T11:16:11.140Z,0.30
2023-04-21T11:18:12.981Z,0.60
2023-04-21T11:20:14.981Z,0.50
2023-04-21T11:22:17.859Z,0.70
2023-04-21T11:24:21.272Z,0.57
2023-04-21T11:26:34.859Z,0.70
2023-04-21T11:28:36.703Z,0.60
2023-04-21T11:30:38.514Z,0.50
2023-04-21T11:32:40.269Z,0.60
2023-04-21T11:34:42.140Z,0.60
2023-04-21T11:36:45.133Z,0.60
2023-04-21T11:38:47.036Z,0.50
2023-04-21T11:40:48.987Z,0.50
2023-04-21T11:42:51.069Z,0.50
2023-04-21T11:44:55.058Z,0.50
2023-04-21T11:46:56.778Z,0.60
2023-04-21T11:49:08.043Z,0.40
2023-04-21T11:51:21.517Z,0.40
2023-04-21T11:53:30.018Z,0.50
2023-04-21T11:55:31.780Z,0.40
2023-04-21T11:57:34.317Z,0.30
2023-04-21T11:59:36.034Z,0.45
2023-04-21T12:01:47.732Z,0.40
2023-04-21T12:03:57.652Z,0.50
2023-04-21T12:05:59.913Z,0.68
2023-04-21T12:08:01.931Z,0.60
2023-04-21T12:10:20.328Z,0.80
2023-04-21T12:12:24.327Z,0.55
2023-04-21T12:14:29.106Z,0.70
2023-04-21T12:16:31.034Z,0.60
2023-04-21T12:18:34.377Z,1.23
2023-04-21T12:20:40.291Z,0.80
2023-04-21T12:22:58.270Z,0.70
2023-04-21T12:25:00.754Z,0.70
2023-04-21T12:27:03.080Z,0.60
2023-04-21T12:29:04.763Z,0.80
2023-04-21T12:31:07.072Z,1.00
2023-04-21T12:33:08.948Z,0.90
2023-04-21T12:35:11.192Z,0.88
2023-04-21T12:37:12.941Z,1.00
2023-04-21T12:39:17.339Z,0.85
2023-04-21T12:41:19.205Z,0.90
2023-04-21T12:43:20.981Z,0.93
2023-04-21T12:45:32.795Z,0.70
2023-04-21T12:47:37.028Z,1.10
2023-04-21T12:49:38.908Z,1.38
2023-04-21T12:51:40.693Z,1.13
2023-04-21T12:53:42.339Z,1.50
2023-04-21T12:55:56.901Z,1.10
2023-04-21T12:58:02.961Z,1.70
2023-04-21T13:00:05.998Z,1.90
2023-04-21T13:02:07.844Z,2.50
2023-04-21T13:06:33.114Z,1.75
2023-04-21T13:08:38.032Z,2.88
2023-04-21T13:10:40.365Z,1.75
2023-04-21T13:12:42.241Z,2.00
2023-04-21T13:14:44.122Z,2.30
2023-04-21T13:16:45.998Z,2.22
2023-04-21T13:18:47.810Z,1.83
2023-04-21T13:20:49.558Z,2.17
2023-04-21T13:22:51.221Z,1.92
2023-04-21T13:24:52.982Z,2.50
2023-04-21T13:26:54.805Z,2.35
2023-04-21T13:28:56.515Z,1.90
2023-04-21T13:30:58.867Z,2.08
2023-04-21T13:33:00.801Z,1.17
2023-04-21T13:35:08.703Z,1.60
2023-04-21T13:37:12.630Z,1.88
2023-04-21T13:39:14.994Z,2.45
2023-04-21T13:41:17.209Z,2.83
2023-04-21T13:43:19.898Z,2.30
2023-04-21T13:45:21.707Z,2.00
2023-04-21T13:47:24.210Z,2.17
2023-04-21T13:49:26.039Z,2.55
2023-04-21T13:51:27.935Z,2.50
2023-04-21T13:53:29.696Z,2.22
2023-04-21T13:55:31.682Z,2.05
2023-04-21T13:57:33.370Z,2.58
2023-04-21T13:59:35.311Z,2.53
2023-04-21T14:01:37.870Z,1.90
2023-04-21T14:03:50.901Z,2.70
2023-04-21T14:05:53.034Z,3.17
2023-04-21T14:07:55.206Z,2.88
2023-04-21T14:09:58.108Z,3.13
2023-04-21T14:11:59.899Z,2.67
2023-04-21T14:14:09.428Z,2.85
2023-04-21T14:16:12.034Z,3.35
2023-04-21T14:18:13.815Z,2.30
2023-04-21T14:20:15.498Z,2.70
2023-04-21T14:22:17.419Z,2.60
2023-04-21T14:24:19.146Z,3.20
2023-04-21T14:26:21.299Z,2.60
2023-04-21T14:28:23.047Z,2.17
2023-04-21T14:30:24.830Z,2.17
2023-04-21T14:32:26.689Z,2.33
2023-04-21T14:34:28.444Z,2.30
2023-04-21T14:36:30.258Z,1.98
2023-04-21T14:38:33.875Z,1.92
2023-04-21T14:40:35.699Z,2.13
2023-04-21T14:42:37.914Z,2.15
2023-04-21T14:44:39.639Z,1.75
2023-04-21T14:46:43.387Z,1.60
2023-04-21T14:48:46.381Z,2.22
2023-04-21T14:50:48.142Z,1.95
2023-04-21T14:52:49.889Z,2.42
2023-04-21T14:54:51.925Z,2.45
2023-04-21T14:57:03.324Z,2.20
2023-04-21T14:59:12.624Z,1.90
2023-04-21T15:01:14.596Z,1.83
2023-04-21T15:03:16.393Z,2.70
2023-04-21T15:05:18.933Z,2.67
2023-04-21T15:07:24.461Z,2.50
2023-04-21T15:09:26.793Z,3.20
2023-04-21T15:11:28.664Z,3.05
2023-04-21T15:13:30.401Z,2.78
2023-04-21T15:15:32.230Z,2.50
2023-04-21T15:17:34.203Z,2.10
2023-04-21T15:19:36.537Z,2.85
2023-04-21T15:21:38.404Z,2.63
2023-04-21T15:23:40.051Z,2.03
2023-04-21T15:25:42.156Z,2.00
2023-04-21T15:27:46.766Z,2.50
2023-04-21T15:29:48.493Z,2.75
2023-04-21T15:31:50.238Z,3.35
2023-04-21T15:33:51.953Z,3.40
2023-04-21T15:35:53.684Z,4.45
2023-04-21T15:37:55.333Z,3.42
2023-04-21T15:39:57.102Z,2.90
2023-04-21T15:41:59.409Z,3.13
2023-04-21T15:44:01.175Z,2.17
2023-04-21T15:46:03.336Z,2.63
2023-04-21T15:48:05.044Z,2.55
2023-04-21T15:50:07.696Z,3.17
2023-04-21T15:52:09.571Z,2.33
2023-04-21T15:54:11.361Z,2.05
2023-04-21T15:56:14.422Z,3.22
2023-04-21T15:58:16.186Z,2.10
2023-04-21T16:00:18.392Z,1.52
2023-04-21T16:02:20.820Z,1.73
2023-04-21T16:04:23.258Z,2.03
2023-04-21T16:06:25.544Z,1.60
2023-04-21T16:08:28.165Z,2.20
2023-04-21T16:10:30.017Z,1.90
2023-04-21T16:12:31.812Z,1.75
2023-04-21T16:14:43.002Z,1.42
2023-04-21T16:16:55.277Z,1.73
2023-04-21T16:18:57.009Z,2.72
2023-04-21T16:20:58.725Z,2.05
2023-04-21T16:23:00.585Z,2.10
2023-04-21T16:25:02.861Z,2.13
2023-04-21T16:27:04.668Z,1.63
2023-04-21T16:29:06.435Z,1.48
2023-04-21T16:31:08.464Z,1.48
2023-04-21T16:33:11.530Z,1.27
2023-04-21T16:35:13.483Z,0.95
2023-04-21T16:37:15.309Z,1.10
2023-04-21T16:39:17.670Z,1.30
2023-04-21T16:41:21.031Z,1.30
2023-04-21T16:43:22.926Z,1.05
2023-04-21T16:45:24.873Z,0.80
2023-04-21T16:47:26.886Z,0.90
2023-04-21T16:49:30.323Z,1.17
2023-04-21T16:51:32.225Z,1.00
2023-04-21T16:53:35.497Z,0.80
2023-04-21T16:55:37.974Z,1.08
2023-04-21T16:57:48.809Z,1.08
2023-04-21T16:59:51.690Z,1.05
2023-04-21T17:01:53.373Z,0.98
2023-04-21T17:03:55.188Z,1.30
2023-04-21T17:05:56.955Z,1.25
2023-04-21T17:07:58.681Z,1.33
2023-04-21T17:10:00.526Z,1.20
2023-04-21T17:12:03.176Z,1.50
2023-04-21T17:14:04.906Z,1.60
2023-04-21T17:16:07.886Z,1.15
2023-04-21T17:18:10.411Z,1.23
2023-04-21T17:20:13.869Z,1.27
2023-04-21T17:22:15.731Z,1.27
2023-04-21T17:24:17.425Z,1.35
2023-04-21T17:26:19.342Z,1.00
2023-04-21T17:28:21.085Z,1.10
2023-04-21T17:30:23.503Z,1.00
2023-04-21T17:32:25.533Z,1.38
2023-04-21T17:34:27.513Z,1.20
2023-04-21T17:36:29.783Z,1.20
2023-04-21T17:38:32.193Z,1.10
2023-04-21T17:40:34.017Z,1.10
2023-04-21T17:42:36.080Z,0.98
2023-04-21T17:44:38.070Z,0.95
2023-04-21T17:46:40.291Z,1.10
2023-04-21T17:48:42.111Z,1.10
2023-04-21T17:50:43.932Z,1.35
2023-04-21T17:52:45.628Z,1.30
2023-04-21T17:54:47.348Z,1.50
2023-04-21T17:56:49.700Z,1.63
2023-04-21T17:58:51.556Z,1.10
2023-04-21T18:00:53.330Z,1.08
2023-04-21T18:02:55.242Z,1.02
2023-04-21T18:04:57.363Z,1.23
2023-04-21T18:06:59.436Z,1.10
2023-04-21T18:09:01.164Z,1.20
2023-04-21T18:11:02.951Z,1.20
2023-04-21T18:13:06.227Z,1.27
2023-04-21T18:15:09.137Z,1.30
2023-04-21T18:17:11.087Z,1.30
2023-04-21T18:19:12.831Z,1.38
2023-04-21T18:21:16.030Z,1.30
2023-04-21T18:23:17.785Z,1.35
2023-04-21T18:25:30.749Z,1.35
2023-04-21T18:27:41.428Z,1.35
2023-04-21T18:29:43.123Z,1.15
2023-04-21T18:31:44.967Z,1.40
2023-04-21T18:33:46.697Z,1.35
2023-04-21T18:35:48.473Z,1.45
2023-04-21T18:37:50.179Z,1.23
2023-04-21T18:39:51.865Z,1.30
2023-04-21T18:41:53.645Z,1.20
2023-04-21T18:43:55.354Z,1.42
2023-04-21T18:45:57.092Z,1.33
2023-04-21T18:47:58.883Z,1.48
2023-04-21T18:50:00.548Z,1.65
2023-04-21T18:52:02.320Z,1.70
2023-04-21T18:54:05.115Z,1.63
2023-04-21T18:56:06.832Z,1.95
2023-04-21T18:58:08.508Z,1.42
2023-04-21T19:00:11.148Z,1.25
2023-04-21T19:02:13.782Z,1.45
2023-04-21T19:04:15.742Z,1.50
2023-04-21T19:06:17.698Z,1.83
2023-04-21T19:08:30.042Z,1.42
2023-04-21T19:10:40.405Z,1.33
2023-04-21T19:12:42.190Z,1.70
2023-04-21T19:14:47.479Z,1.42
2023-04-21T19:16:51.830Z,1.65
2023-04-21T19:18:54.140Z,1.90
2023-04-21T19:20:55.896Z,1.83
2023-04-21T19:22:57.594Z,1.85
2023-04-21T19:24:59.222Z,1.30
2023-04-21T19:27:05.525Z,1.92
2023-04-21T19:29:11.653Z,1.90
2023-04-21T19:31:13.577Z,2.25
2023-04-21T19:33:16.106Z,1.98
2023-04-21T19:35:18.043Z,2.10
2023-04-21T19:37:19.752Z,2.28
2023-04-21T19:39:22.525Z,1.55
2023-04-21T19:41:24.637Z,2.20
2023-04-21T19:43:26.840Z,1.65
2023-04-21T19:45:28.586Z,1.83
2023-04-21T19:47:32.148Z,1.77
2023-04-21T19:49:34.002Z,1.63
2023-04-21T19:51:35.690Z,1.30
2023-04-21T19:53:37.442Z,1.92
2023-04-21T19:55:39.534Z,1.90
2023-04-21T19:57:41.362Z,2.17
2023-04-21T19:59:43.002Z,2.10
2023-04-21T20:01:44.799Z,2.20
2023-04-21T20:03:47.878Z,2.13
2023-04-21T20:05:50.536Z,1.80
2023-04-21T20:07:52.288Z,1.80
2023-04-21T20:09:53.954Z,1.77
2023-04-21T20:11:55.693Z,1.48
2023-04-21T20:13:57.327Z,1.70
2023-04-21T20:15:59.514Z,1.73
2023-04-21T20:18:01.361Z,1.85
2023-04-21T20:20:05.377Z,1.60
2023-04-21T20:22:08.208Z,1.70
2023-04-21T20:24:10.553Z,1.90
2023-04-21T20:26:12.455Z,2.03
2023-04-21T20:28:14.201Z,1.83
2023-04-21T20:30:15.961Z,1.90
2023-04-21T20:32:17.664Z,1.52
2023-04-21T20:34:19.495Z,2.47
2023-04-21T20:36:22.284Z,2.10
2023-04-21T20:38:24.704Z,2.10
2023-04-21T20:40:26.500Z,2.58
2023-04-21T20:42:28.263Z,2.35
2023-04-21T20:44:31.530Z,2.28
2023-04-21T20:46:33.537Z,2.58
2023-04-21T20:48:35.530Z,3.17
2023-04-21T20:50:37.451Z,2.28
2023-04-21T20:52:39.204Z,2.67
2023-04-21T20:54:40.902Z,2.28
2023-04-21T20:56:42.674Z,2.53
2023-04-21T20:58:44.488Z,2.15
2023-04-21T21:00:46.303Z,1.98
2023-04-21T21:02:48.071Z,2.58
2023-04-21T21:04:49.875Z,2.65
2023-04-21T21:06:51.676Z,2.75
2023-04-21T21:08:53.353Z,2.58
2023-04-21T21:10:55.066Z,2.53
2023-04-21T21:12:59.587Z,2.45
2023-04-21T21:15:01.421Z,2.10
2023-04-21T21:17:03.471Z,2.10
2023-04-21T21:19:05.338Z,2.10
2023-04-21T21:21:07.166Z,1.98
2023-04-21T21:23:08.921Z,2.38
2023-04-21T21:25:10.776Z,2.10
2023-04-21T21:27:12.748Z,1.88
2023-04-21T21:29:37.517Z,1.73
2023-04-21T21:31:43.391Z,2.03
2023-04-21T21:33:45.065Z,2.00
2023-04-21T21:35:46.834Z,2.00
2023-04-21T21:37:50.357Z,2.10
2023-04-21T21:39:52.748Z,1.65
2023-04-21T21:41:54.512Z,1.77
2023-04-21T21:43:56.210Z,1.83
2023-04-21T21:45:57.937Z,2.00
2023-04-21T21:47:59.935Z,2.38
2023-04-21T21:50:01.746Z,1.98
2023-04-21T21:52:03.779Z,2.20
2023-04-21T21:54:06.610Z,1.92
2023-04-21T21:56:08.492Z,1.92
2023-04-21T21:58:10.469Z,2.50
2023-04-21T22:00:13.420Z,2.70
2023-04-21T22:02:15.763Z,2.20
2023-04-21T22:04:20.586Z,2.38
2023-04-21T22:06:24.296Z,2.15
2023-04-21T22:08:26.252Z,3.33
2023-04-21T22:10:27.990Z,2.95
2023-04-21T22:12:32.671Z,2.33
2023-04-21T22:14:34.499Z,2.40
2023-04-21T22:16:36.546Z,2.25
2023-04-21T22:18:38.712Z,1.98
2023-04-21T22:20:40.460Z,2.00
2023-04-21T22:22:42.440Z,2.53
2023-04-21T22:24:44.091Z,2.88
2023-04-21T22:26:46.281Z,2.78
2023-04-21T22:28:52.097Z,2.78
2023-04-21T22:30:53.891Z,2.60
2023-04-21T22:32:55.677Z,4.05
2023-04-21T22:34:57.715Z,4.78
2023-04-21T22:36:59.437Z,5.45
2023-04-21T22:39:01.287Z,6.35
2023-04-21T22:41:03.274Z,8.45
2023-04-21T22:43:05.877Z,7.10
2023-04-21T22:45:08.315Z,8.10
2023-04-21T22:47:10.860Z,7.15
2023-04-21T22:49:12.609Z,5.40
2023-04-21T22:51:21.203Z,4.90
2023-04-21T22:53:23.165Z,4.38
2023-04-21T22:55:25.727Z,3.97
2023-04-21T22:57:27.632Z,4.63
2023-04-21T22:59:29.395Z,3.65
2023-04-21T23:01:32.222Z,3.85
2023-04-21T23:03:34.095Z,2.88
2023-04-21T23:05:36.237Z,3.28
2023-04-21T23:07:37.916Z,3.53
2023-04-21T23:09:39.955Z,3.47
2023-04-21T23:11:41.967Z,4.00
2023-04-21T23:13:43.695Z,4.80
2023-04-21T23:15:45.660Z,4.63
2023-04-21T23:17:48.407Z,4.90
2023-04-21T23:19:50.190Z,4.95
2023-04-21T23:21:51.973Z,5.15
2023-04-21T23:23:53.675Z,5.63
2023-04-21T23:25:55.558Z,5.45
2023-04-21T23:27:57.268Z,5.35
2023-04-21T23:29:58.915Z,4.32
2023-04-21T23:32:00.768Z,4.43
2023-04-21T23:34:02.562Z,4.70
2023-04-21T23:36:04.411Z,3.95
2023-04-21T23:38:06.183Z,3.65
2023-04-21T23:40:11.249Z,4.32
2023-04-21T23:42:13.294Z,3.97
2023-04-21T23:44:15.261Z,3.67
2023-04-21T23:46:17.531Z,3.58
2023-04-21T23:48:19.246Z,3.28
2023-04-21T23:50:21.979Z,3.15
2023-04-21T23:52:23.733Z,3.40
2023-04-21T23:54:25.588Z,2.55
2023-04-21T23:56:27.395Z,3.33
2023-04-21T23:58:29.080Z,2.80
